Data for 07/13/2015

Time Sea-Level Adjusted Pressure Absolute Pressure Temperature Relative Humidity Dew Point   
(mb) (inHg) (mb) (inHg) (C) (F) (%) (C) (F)
00:05 1020 30.12 849 25.07 16.5 61.7 56 7.8 46
00:10 1020 30.12 849 25.07 16.5 61.7 61 8.9 48
00:15 1020 30.12 849 25.07 16.5 61.6 58 8.2 46.8
00:20 1020 30.12 849 25.07 16.4 61.5 57 7.9 46.2
00:25 1020 30.12 849 25.07 16.3 61.3 56 7.4 45.4
00:30 1020 30.12 849 25.07 16.4 61.6 53 7 44.6
00:35 1020 30.12 849 25.07 16.5 61.6 55 7.5 45.5
00:40 1020 30.12 849 25.07 16.3 61.4 55 7.3 45.2
00:45 1020 30.12 849 25.07 16.3 61.3 57 7.9 46.1
00:50 1020 30.12 849 25.07 15.7 60.3 58 7.6 45.6
00:55 1020 30.12 849 25.07 15.4 59.8 57 7.2 44.9
01:00 1020 30.12 849 25.07 15.4 59.8 57 7.1 44.8
01:05 1020 30.12 849 25.07 15.6 60 58 7.3 45.2
01:10 1020 30.12 849 25.07 15.5 60 56 7 44.6
01:15 1020 30.12 849 25.07 16.1 61 51 6.2 43.1
01:20 1020 30.12 849 25.07 16.5 61.8 53 7 44.7
01:25 1020 30.12 849 25.07 16.3 61.3 55 7.2 45
01:30 1020 30.12 849 25.07 16.1 60.9 55 7.2 44.9
01:35 1020 30.12 849 25.07 15.9 60.6 56 7.1 44.8
01:40 1020 30.12 849 25.07 15.7 60.2 57 7.3 45.1
01:45 1020 30.12 849 25.07 15.6 60 57 7.1 44.7
01:50 1020 30.12 849 25.07 15.5 60 56 7 44.6
01:55 1020 30.12 849 25.07 15.6 60.1 58 7.6 45.6
02:00 1020 30.12 849 25.07 15.7 60.3 58 7.5 45.5
02:05 1020 30.12 849 25.07 15.7 60.3 55 6.9 44.5
02:10 1020 30.12 849 25.07 15.5 59.9 57 7 44.7
02:15 1020 30.12 849 25.07 15.5 60 56 6.9 44.5
02:20 1020 30.12 849 25.07 15.6 60.1 56 7.1 44.8
02:25 1020 30.12 850 25.1 15.6 60.1 57 7.3 45.2
02:30 1021 30.15 850 25.1 15.3 59.6 59 7.6 45.6
02:35 1021 30.15 850 25.1 15.4 59.7 58 7.2 45
02:40 1020 30.12 850 25.1 15.4 59.7 58 7.2 44.9
02:45 1020 30.12 850 25.1 15.6 60.1 58 7.3 45.2
02:50 1020 30.12 850 25.1 15.6 60 58 7.3 45.2
02:55 1020 30.12 849 25.07 15.2 59.4 61 7.9 46.2
03:00 1020 30.12 849 25.07 14.7 58.5 61 7.3 45.2
03:05 1020 30.12 849 25.07 15.2 59.3 57 6.7 44.1
03:10 1020 30.12 849 25.07 15.3 59.6 58 7.1 44.8
03:15 1020 30.12 849 25.07 15.3 59.6 57 6.9 44.4
03:20 1020 30.12 849 25.07 15.3 59.6 57 7.1 44.7
03:25 1020 30.12 849 25.07 15.2 59.4 59 7.2 45
03:30 1020 30.12 849 25.07 15 58.9 60 7.3 45.1
03:35 1020 30.12 849 25.07 14.8 58.6 61 7.3 45.2
03:40 1020 30.12 849 25.07 14.8 58.7 60 7.3 45.1
03:45 1020 30.12 850 25.1 14.8 58.6 61 7.3 45.1
03:50 1020 30.12 850 25.1 14.8 58.6 60 7.3 45.1
03:55 1020 30.12 850 25.1 14.8 58.6 59 6.9 44.5
04:00 1020 30.12 850 25.1 15.1 59.1 59 7.2 45
04:05 1020 30.12 850 25.1 15.2 59.3 59 7.4 45.3
04:10 1020 30.12 850 25.1 15.2 59.3 60 7.5 45.4
04:15 1020 30.12 850 25.1 14.9 58.9 59 7.1 44.8
04:20 1020 30.12 850 25.1 14.8 58.6 60 7.2 44.9
04:25 1020 30.12 850 25.1 14.6 58.4 61 7.2 45
04:30 1020 30.12 850 25.1 14.7 58.4 62 7.4 45.4
04:35 1020 30.12 850 25.1 14.5 58.2 62 7.5 45.5
04:40 1020 30.12 850 25.1 14 57.3 64 7.4 45.3
04:45 1020 30.12 850 25.1 13.6 56.6 65 7.2 45
04:50 1021 30.15 850 25.1 13.7 56.6 66 7.4 45.3
04:55 1020 30.12 850 25.1 13.9 57 65 7.4 45.4
05:00 1020 30.12 850 25.1 14 57.1 65 7.7 45.8
05:05 1020 30.12 850 25.1 13.9 57 64 7.3 45.2
05:10 1021 30.15 850 25.1 14.3 57.7 62 7.1 44.9
05:15 1021 30.15 850 25.1 14.7 58.4 62 7.5 45.5
05:20 1021 30.15 850 25.1 14.7 58.5 60 7.2 44.9
05:25 1021 30.15 850 25.1 15.1 59.1 58 6.9 44.4
05:30 1021 30.15 850 25.1 15.3 59.6 58 7.2 44.9
05:35 1021 30.15 850 25.1 15.3 59.5 59 7.4 45.4
05:40 1021 30.15 850 25.1 15.2 59.4 57 6.8 44.2
05:45 1020 30.12 850 25.1 15.5 59.9 56 6.9 44.5
05:50 1021 30.15 850 25.1 15.7 60.2 57 7.2 45
05:55 1021 30.15 850 25.1 15.7 60.3 58 7.5 45.6
06:00 1021 30.15 850 25.1 15.6 60.1 59 7.7 45.8
06:05 1021 30.15 850 25.1 15.6 60 60 7.8 46
06:10 1021 30.15 850 25.1 15.6 60 59 7.5 45.6
06:15 1021 30.15 850 25.1 15.6 60.1 58 7.4 45.3
06:20 1021 30.15 850 25.1 15.7 60.3 56 7.1 44.8
06:25 1021 30.15 850 25.1 15.8 60.5 55 7 44.5
06:30 1021 30.15 850 25.1 15.8 60.4 55 7 44.6
06:35 1021 30.15 850 25.1 15.7 60.3 55 6.9 44.5
06:40 1021 30.15 850 25.1 15.6 60.1 56 7 44.6
06:45 1021 30.15 850 25.1 15.8 60.5 57 7.3 45.2
06:50 1021 30.15 850 25.1 16.1 61 56 7.4 45.3
06:55 1021 30.15 851 25.13 16.2 61.2 57 7.7 45.8
07:00 1021 30.15 851 25.13 16.4 61.6 55 7.5 45.5
07:05 1021 30.15 851 25.13 17 62.7 52 7.3 45.2
07:10 1021 30.15 851 25.13 17.4 63.4 51 7.2 45
07:15 1021 30.15 851 25.13 17.6 63.7 51 7.6 45.6
07:20 1021 30.15 851 25.13 18 64.4 48 6.9 44.4
07:25 1021 30.15 850 25.1 18.5 65.3 44 6.2 43.2
07:30 1021 30.15 850 25.1 18.3 65 48 7.1 44.8
07:35 1021 30.15 851 25.13 18.1 64.7 45 6.1 43
07:40 1021 30.15 851 25.13 18.7 65.6 44 6.3 43.3
07:45 1021 30.15 850 25.1 19 66.2 43 6.2 43.2
07:50 1021 30.15 850 25.1 19.1 66.3 43 6.3 43.3
07:55 1021 30.15 850 25.1 19.2 66.6 44 6.7 44.1
08:00 1021 30.15 850 25.1 19.8 67.6 42 6.6 43.8
08:05 1021 30.15 850 25.1 20.3 68.5 41 6.6 43.9
08:10 1021 30.15 850 25.1 20.4 68.8 40 6.5 43.6
08:15 1021 30.15 850 25.1 20.5 68.8 41 7.1 44.7
08:20 1021 30.15 850 25.1 19.9 67.9 42 6.8 44.2
08:25 1021 30.15 850 25.1 20.5 68.9 40 6.5 43.6
08:30 1021 30.15 850 25.1 21.1 69.9 39 6.8 44.2
08:35 1021 30.15 850 25.1 21.1 70 40 7 44.6
08:40 1021 30.15 850 25.1 21.3 70.3 39 6.9 44.4
08:45 1021 30.15 850 25.1 21.5 70.7 40 7.4 45.3
08:50 1021 30.15 850 25.1 21 69.7 40 7.2 44.9
08:55 1021 30.15 850 25.1 20.3 68.6 41 6.9 44.4
09:00 1021 30.15 850 25.1 21 69.8 39 6.7 44.1
09:05 1021 30.15 850 25.1 21.5 70.8 37 6.3 43.3
09:10 1021 30.15 850 25.1 21.9 71.4 37 6.6 43.8
09:15 1021 30.15 850 25.1 22 71.5 37 6.8 44.3
09:20 1021 30.15 850 25.1 22.4 72.3 37 7.2 45
09:25 1021 30.15 850 25.1 22.7 72.9 37 7.4 45.2
09:30 1021 30.15 850 25.1 21.6 70.9 38 7 44.7
09:35 1021 30.15 850 25.1 22.2 71.9 36 6.6 43.9
09:40 1021 30.15 850 25.1 21.9 71.5 37 6.6 43.8
09:45 1021 30.15 850 25.1 21.6 70.9 35 5.6 42.1
09:50 1021 30.15 850 25.1 22.5 72.4 36 6.7 44.1
09:55 1021 30.15 850 25.1 22.6 72.7 35 6.6 43.8
10:00 1021 30.15 850 25.1 23 73.4 34 6.7 44
10:05 1021 30.15 850 25.1 23.3 73.9 33 6.3 43.4
10:10 1021 30.15 850 25.1 23.3 74 33 6.3 43.3
10:15 1021 30.15 850 25.1 23.6 74.4 33 6.4 43.5
10:20 1021 30.15 850 25.1 23.3 73.9 33 6.3 43.3
10:25 1021 30.15 850 25.1 23.1 73.5 34 6.7 44.1
10:30 1020 30.12 850 25.1 22.8 73.1 33 6.1 42.9
10:35 1020 30.12 850 25.1 23.5 74.2 32 5.9 42.6
10:40 1020 30.12 850 25.1 24.1 75.4 31 6.1 43
10:45 1020 30.12 850 25.1 24.2 75.5 31 6.3 43.3
10:50 1020 30.12 849 25.07 23.8 74.8 32 6.4 43.5
10:55 1020 30.12 849 25.07 24.2 75.6 31 6.1 43.1
11:00 1020 30.12 849 25.07 24.4 76 30 5.8 42.4
11:05 1020 30.12 849 25.07 24.7 76.5 29 5.9 42.5
11:10 1020 30.12 849 25.07 25 77.1 29 5.9 42.7
11:15 1020 30.12 849 25.07 25.5 77.9 28 5.9 42.6
11:20 1020 30.12 849 25.07 24.7 76.4 30 6.4 43.6
11:25 1020 30.12 849 25.07 24.4 75.9 29 5.6 42
11:30 1020 30.12 849 25.07 24.2 75.5 27 4.1 39.4
11:35 1020 30.12 849 25.07 24.6 76.3 28 5.3 41.5
11:40 1020 30.12 849 25.07 25 76.9 27 5.2 41.3
11:45 1020 30.12 849 25.07 25.3 77.6 26 4.9 40.8
11:50 1020 30.12 849 25.07 25.5 77.9 27 5.4 41.8
11:55 1020 30.12 849 25.07 25.6 78.1 27 5.6 42
12:00 1020 30.12 849 25.07 26 78.9 27 5.8 42.4
12:05 1020 30.12 849 25.07 25.4 77.8 27 5.1 41.1
12:10 1020 30.12 849 25.07 25.4 77.8 27 5.5 41.8
12:15 1020 30.12 849 25.07 25.7 78.2 27 5.7 42.3
12:20 1020 30.12 849 25.07 26 78.9 26 5.1 41.2
12:25 1020 30.12 849 25.07 25 77 28 5.5 41.9
12:30 1019 30.09 849 25.07 25.2 77.4 27 5 41
12:35 1019 30.09 849 25.07 26.4 79.4 26 5.4 41.8
12:40 1019 30.09 849 25.07 26.1 79 26 5.6 42.1
12:45 1019 30.09 849 25.07 26.8 80.2 25 5.4 41.7
12:50 1019 30.09 849 25.07 26.6 79.8 26 5.9 42.5
12:55 1019 30.09 849 25.07 26.1 78.9 26 5.6 42
13:00 1019 30.09 848 25.04 26.5 79.6 26 5.6 42.1
13:05 1019 30.09 848 25.04 26.7 80.1 25 5.5 41.9
13:10 1019 30.09 848 25.04 26.8 80.2 26 6.2 43.2
13:15 1019 30.09 848 25.04 26.7 80.1 25 5.1 41.2
13:20 1019 30.09 848 25.04 26.9 80.4 26 6.2 43.1
13:25 1019 30.09 848 25.04 26.9 80.4 24 4.9 40.9
13:30 1019 30.09 848 25.04 26.9 80.4 25 5.5 41.8
13:35 1019 30.09 848 25.04 27.1 80.8 24 5.1 41.2
13:40 1019 30.09 848 25.04 27 80.5 24 5.1 41.2
13:45 1019 30.09 848 25.04 26.7 80.1 25 5.2 41.4
13:50 1019 30.09 848 25.04 26.8 80.3 26 5.7 42.3
13:55 1019 30.09 848 25.04 27.1 80.8 24 5.1 41.1
14:00 1019 30.09 848 25.04 27.4 81.3 23 4.7 40.5
14:05 1019 30.09 848 25.04 26.6 79.8 24 4.8 40.6
14:10 1019 30.09 848 25.04 26.8 80.3 24 4.8 40.6
14:15 1018 30.06 848 25.04 27 80.6 24 5 41.1
14:20 1018 30.06 848 25.04 27.1 80.9 23 4.5 40
14:25 1018 30.06 847 25.01 27.5 81.5 23 4.8 40.7
14:30 1018 30.06 847 25.01 27.7 81.8 22 4.4 40
14:35 1018 30.06 847 25.01 27.6 81.6 24 5.3 41.5
14:40 1018 30.06 847 25.01 27.8 82 22 4.7 40.4
14:45 1018 30.06 847 25.01 26.4 79.6 24 4.3 39.8
14:50 1018 30.06 847 25.01 27.2 81 22 4 39.2
14:55 1018 30.06 847 25.01 27.7 81.8 23 4.9 40.9
15:00 1018 30.06 847 25.01 27.5 81.5 24 5.4 41.8
15:05 1018 30.06 847 25.01 27.3 81.1 23 4.4 39.8
15:10 1018 30.06 847 25.01 27.8 82 21 4.1 39.4
15:15 1018 30.06 847 25.01 27.6 81.7 23 4.6 40.4
15:20 1018 30.06 847 25.01 28 82.3 22 4.6 40.2
15:25 1017 30.03 847 25.01 27.9 82.2 23 5 41.1
15:30 1017 30.03 847 25.01 27.6 81.7 22 4.2 39.6
15:35 1017 30.03 847 25.01 27.8 82 22 4.4 39.9
15:40 1017 30.03 847 25.01 28.2 82.7 21 4.1 39.5
15:45 1017 30.03 847 25.01 28.1 82.6 21 4.1 39.4
15:50 1017 30.03 846 24.98 27.8 82 21 4.1 39.3
15:55 1017 30.03 846 24.98 27 80.6 24 5 40.9
16:00 1017 30.03 846 24.98 26.9 80.5 23 4.2 39.5
16:05 1017 30.03 846 24.98 26.3 79.3 23 3.8 38.8
16:10 1017 30.03 846 24.98 26.3 79.3 22 3.2 37.7
16:15 1017 30.03 846 24.98 27 80.5 22 3.6 38.4
16:20 1017 30.03 846 24.98 27.6 81.7 22 4.4 40
16:25 1017 30.03 846 24.98 27.9 82.2 20 3.4 38.1
16:30 1017 30.03 846 24.98 27.9 82.3 21 3.6 38.5
16:35 1017 30.03 846 24.98 27.6 81.7 22 4.1 39.3
16:40 1017 30.03 846 24.98 28 82.3 20 3.2 37.7
16:45 1017 30.03 846 24.98 28.2 82.7 20 3.3 37.9
16:50 1017 30.03 846 24.98 28.8 83.8 20 4.2 39.5
16:55 1017 30.03 846 24.98 28.3 82.9 20 3.6 38.5
17:00 1017 30.03 846 24.98 26.7 80.1 22 3.6 38.4
17:05 1017 30.03 846 24.98 26.1 78.9 22 3.1 37.5
17:10 1017 30.03 846 24.98 26.5 79.6 21 2.8 37.1
17:15 1017 30.03 846 24.98 26.7 80.1 22 3.3 37.9
17:20 1017 30.03 846 24.98 26.3 79.4 24 4.7 40.4
17:25 1017 30.03 846 24.98 25.3 77.6 30 6.6 43.9
17:30 1017 30.03 846 24.98 24.3 75.7 32 6.8 44.3
17:35 1017 30.03 847 25.01 22 71.6 43 8.9 47.9
17:40 1018 30.06 847 25.01 19.5 67.1 60 11.6 52.9
17:45 1018 30.06 847 25.01 17.6 63.7 65 11.1 52
17:50 1019 30.09 848 25.04 17.4 63.3 59 9.4 48.9
17:55 1018 30.06 848 25.04 17.7 63.9 66 11.3 52.3
18:00 1018 30.06 847 25.01 17.5 63.5 63 10.3 50.6
18:05 1018 30.06 847 25.01 18.1 64.6 54 8.7 47.7
18:10 1018 30.06 847 25.01 18.6 65.5 68 12.6 54.7
18:15 1018 30.06 848 25.04 18.3 64.9 59 10.3 50.6
18:20 1019 30.09 848 25.04 18.2 64.7 64 11.3 52.3
18:25 1019 30.09 848 25.04 18.3 65 59 10.2 50.4
18:30 1019 30.09 848 25.04 18.6 65.5 63 11.5 52.7
18:35 1019 30.09 848 25.04 18.5 65.2 60 10.6 51
18:40 1019 30.09 848 25.04 18.5 65.2 57 9.8 49.7
18:45 1019 30.09 848 25.04 18.7 65.7 53 9 48.2
18:50 1019 30.09 849 25.07 19 66.1 53 9.2 48.5
18:55 1020 30.12 849 25.07 19.1 66.5 51 8.9 48
19:00 1020 30.12 849 25.07 19.2 66.5 55 10.1 50.1
19:05 1020 30.12 849 25.07 18.8 65.9 55 9.8 49.6
19:10 1020 30.12 849 25.07 18.5 65.3 55 9.4 49
19:15 1020 30.12 849 25.07 18.1 64.6 57 9.5 49.1
19:20 1020 30.12 849 25.07 17.8 64 58 9.5 49.2
19:25 1020 30.12 849 25.07 17.3 63.1 60 9.6 49.2
19:30 1020 30.12 849 25.07 16.9 62.5 63 9.9 49.7
19:35 1020 30.12 849 25.07 16.7 62.1 63 9.7 49.5
19:40 1020 30.12 849 25.07 16.9 62.4 63 9.9 49.7
19:45 1020 30.12 849 25.07 17.1 62.8 62 9.8 49.7
19:50 1020 30.12 849 25.07 17.1 62.8 62 9.9 49.8
19:55 1020 30.12 849 25.07 17.2 63 61 9.7 49.4
20:00 1020 30.12 849 25.07 17.3 63.1 61 9.7 49.5
20:05 1020 30.12 850 25.1 17.1 62.8 64 10.4 50.7
20:10 1020 30.12 850 25.1 16.6 62 65 10.2 50.3
20:15 1020 30.12 850 25.1 16.5 61.8 66 10.3 50.5
20:20 1020 30.12 850 25.1 16.5 61.7 66 10.3 50.5
20:25 1020 30.12 850 25.1 16.3 61.3 68 10.4 50.8
20:30 1021 30.15 850 25.1 16.2 61.2 65 9.8 49.6
20:35 1021 30.15 850 25.1 16.3 61.3 66 9.9 49.9
20:40 1021 30.15 850 25.1 16.2 61.1 66 10 50
20:45 1021 30.15 850 25.1 16.1 60.9 67 10 50
20:50 1021 30.15 850 25.1 15.9 60.6 68 10 50
20:55 1021 30.15 850 25.1 15.9 60.6 68 10 50
21:00 1021 30.15 850 25.1 15.8 60.4 68 10 50
21:05 1021 30.15 850 25.1 15.9 60.5 67 9.8 49.7
21:10 1021 30.15 850 25.1 15.8 60.5 68 10.1 50.1
21:15 1021 30.15 850 25.1 15.6 60.1 70 10.3 50.5
21:20 1021 30.15 850 25.1 15.6 60.1 68 9.8 49.7
21:25 1021 30.15 850 25.1 15.8 60.4 68 9.8 49.7
21:30 1021 30.15 850 25.1 15.9 60.6 67 9.8 49.6
21:35 1021 30.15 850 25.1 16 60.9 66 9.8 49.6
21:40 1021 30.15 850 25.1 16 60.8 68 10.1 50.2
21:45 1021 30.15 850 25.1 15.9 60.5 68 10.1 50.2
21:50 1021 30.15 850 25.1 15.7 60.3 69 10.2 50.3
21:55 1021 30.15 850 25.1 15.6 60 69 10 50.1
22:00 1021 30.15 850 25.1 15.6 60 70 10.2 50.3
22:05 1021 30.15 850 25.1 15.6 60 71 10.3 50.6
22:10 1021 30.15 850 25.1 15.5 59.9 72 10.4 50.8
22:15 1021 30.15 850 25.1 15.5 59.9 72 10.5 50.9
22:20 1021 30.15 850 25.1 15.4 59.8 72 10.5 51
22:25 1021 30.15 850 25.1 15.4 59.6 73 10.7 51.2
22:30 1021 30.15 850 25.1 15.3 59.5 73 10.5 50.9
22:35 1021 30.15 850 25.1 15.2 59.4 73 10.5 50.9
22:40 1021 30.15 850 25.1 15.3 59.6 73 10.5 50.9
22:45 1021 30.15 850 25.1 15.3 59.5 71 10.2 50.3
22:50 1021 30.15 850 25.1 15.2 59.4 71 10.1 50.2
22:55 1021 30.15 850 25.1 15.2 59.3 72 10.2 50.4
23:00 1021 30.15 850 25.1 15.2 59.3 72 10.3 50.5
23:05 1021 30.15 850 25.1 15.1 59.1 73 10.3 50.6
23:10 1021 30.15 850 25.1 15 59 74 10.4 50.7
23:15 1021 30.15 850 25.1 14.9 58.7 74 10.4 50.7
23:20 1021 30.15 850 25.1 14.7 58.5 75 10.3 50.5
23:25 1021 30.15 850 25.1 14.6 58.3 75 10.3 50.5
23:30 1021 30.15 850 25.1 14.6 58.2 76 10.4 50.6
23:35 1021 30.15 850 25.1 14.4 57.9 77 10.6 51
23:40 1021 30.15 850 25.1 14.3 57.7 78 10.6 51.1
23:45 1021 30.15 850 25.1 14.2 57.6 78 10.6 51
23:50 1021 30.15 850 25.1 14.1 57.5 78 10.4 50.8
23:55 1021 30.15 850 25.1 14 57.2 78 10.2 50.3
24:00 1021 30.15 850 25.1 14.1 57.4 78 10.3 50.5